sensor_id;sensor_type;location;lat;lon;timestamp;pressure;altitude;pressure_sealevel;temperature;humidity
55687;BME280;41911;52.362;4.978;2023-04-28T00:00:25;101449.51;;;10.81;31.99
55687;BME280;41911;52.362;4.978;2023-04-28T00:00:56;101442.88;;;11.40;32.31
55687;BME280;41911;52.362;4.978;2023-04-28T00:01:27;101449.41;;;10.55;31.68
55687;BME280;41911;52.362;4.978;2023-04-28T00:01:58;101441.47;;;11.11;31.70
55687;BME280;41911;52.362;4.978;2023-04-28T00:02:29;101444.89;;;11.05;31.26
55687;BME280;41911;52.362;4.978;2023-04-28T00:03:00;101441.63;;;10.95;30.25
55687;BME280;41911;52.362;4.978;2023-04-28T00:03:31;101440.03;;;11.41;32.03
55687;BME280;41911;52.362;4.978;2023-04-28T00:04:01;101436.20;;;10.83;30.94
55687;BME280;41911;52.362;4.978;2023-04-28T00:04:32;101440.87;;;10.87;32.18
55687;BME280;41911;52.362;4.978;2023-04-28T00:05:04;101436.78;;;11.08;30.44
55687;BME280;41911;52.362;4.978;2023-04-28T00:05:35;101436.97;;;11.11;31.49
55687;BME280;41911;52.362;4.978;2023-04-28T00:06:06;101434.85;;;11.29;32.10
55687;BME280;41911;52.362;4.978;2023-04-28T00:06:37;101438.75;;;11.20;32.34
55687;BME280;41911;52.362;4.978;2023-04-28T00:07:08;101438.47;;;10.66;32.28
55687;BME280;41911;52.362;4.978;2023-04-28T00:07:39;101439.34;;;11.00;32.57
55687;BME280;41911;52.362;4.978;2023-04-28T00:08:10;101440.26;;;10.99;32.25
55687;BME280;41911;52.362;4.978;2023-04-28T00:08:43;101442.32;;;10.97;32.69
55687;BME280;41911;52.362;4.978;2023-04-28T00:09:14;101439.93;;;10.99;32.79
55687;BME280;41911;52.362;4.978;2023-04-28T00:09:45;101439.01;;;10.82;32.24
55687;BME280;41911;52.362;4.978;2023-04-28T00:10:16;101435.91;;;10.74;32.75
55687;BME280;41911;52.362;4.978;2023-04-28T00:10:47;101437.85;;;10.67;31.86
55687;BME280;41911;52.362;4.978;2023-04-28T00:11:17;101438.84;;;10.86;31.02
55687;BME280;41911;52.362;4.978;2023-04-28T00:11:48;101437.07;;;10.89;31.35
55687;BME280;41911;52.362;4.978;2023-04-28T00:12:19;101437.53;;;10.60;31.98
55687;BME280;41911;52.362;4.978;2023-04-28T00:12:52;101435.01;;;10.96;30.83
55687;BME280;41911;52.362;4.978;2023-04-28T00:13:23;101433.44;;;11.16;31.38
55687;BME280;41911;52.362;4.978;2023-04-28T00:13:54;101434.18;;;11.28;31.85
55687;BME280;41911;52.362;4.978;2023-04-28T00:14:25;101428.87;;;10.72;31.84
55687;BME280;41911;52.362;4.978;2023-04-28T00:14:56;101431.31;;;11.00;32.16
55687;BME280;41911;52.362;4.978;2023-04-28T00:15:26;101426.57;;;11.28;32.54
55687;BME280;41911;52.362;4.978;2023-04-28T00:15:58;101426.94;;;10.76;32.01
55687;BME280;41911;52.362;4.978;2023-04-28T00:16:29;101426.19;;;10.90;32.31
55687;BME280;41911;52.362;4.978;2023-04-28T00:17:00;101425.19;;;11.29;31.87
55687;BME280;41911;52.362;4.978;2023-04-28T00:17:31;101422.94;;;10.46;31.78
55687;BME280;41911;52.362;4.978;2023-04-28T00:18:02;101424.46;;;10.70;31.64
55687;BME280;41911;52.362;4.978;2023-04-28T00:18:33;101420.38;;;11.45;31.38
55687;BME280;41911;52.362;4.978;2023-04-28T00:19:04;101420.78;;;11.32;31.50
55687;BME280;41911;52.362;4.978;2023-04-28T00:19:35;101419.09;;;11.12;31.30
55687;BME280;41911;52.362;4.978;2023-04-28T00:20:07;101417.82;;;10.92;32.05
55687;BME280;41911;52.362;4.978;2023-04-28T00:20:38;101416.66;;;11.18;32.53
55687;BME280;41911;52.362;4.978;2023-04-28T00:21:09;101413.84;;;11.00;32.06
55687;BME280;41911;52.362;4.978;2023-04-28T00:21:40;101411.43;;;10.86;32.13
55687;BME280;41911;52.362;4.978;2023-04-28T00:22:11;101414.80;;;10.98;30.23
55687;BME280;41911;52.362;4.978;2023-04-28T00:22:42;101406.32;;;10.50;31.73
55687;BME280;41911;52.362;4.978;2023-04-28T00:23:14;101409.11;;;10.94;31.39
55687;BME280;41911;52.362;4.978;2023-04-28T00:23:45;101407.37;;;11.23;30.33
55687;BME280;41911;52.362;4.978;2023-04-28T00:24:16;101405.51;;;10.59;31.31
55687;BME280;41911;52.362;4.978;2023-04-28T00:24:47;101405.22;;;10.92;30.45
55687;BME280;41911;52.362;4.978;2023-04-28T00:25:17;101402.94;;;10.88;31.62
55687;BME280;41911;52.362;4.978;2023-04-28T00:25:50;101405.96;;;11.48;31.55
55687;BME280;41911;52.362;4.978;2023-04-28T00:26:21;101400.57;;;11.18;31.99
55687;BME280;41911;52.362;4.978;2023-04-28T00:26:52;101401.68;;;10.95;31.45
55687;BME280;41911;52.362;4.978;2023-04-28T00:27:23;101400.02;;;11.25;31.05
55687;BME280;41911;52.362;4.978;2023-04-28T00:27:54;101402.55;;;10.77;31.28
55687;BME280;41911;52.362;4.978;2023-04-28T00:28:25;101400.09;;;10.83;31.33
55687;BME280;41911;52.362;4.978;2023-04-28T00:28:56;101398.37;;;11.55;31.72
55687;BME280;41911;52.362;4.978;2023-04-28T00:29:27;101399.49;;;11.12;31.09
55687;BME280;41911;52.362;4.978;2023-04-28T00:29:58;101398.75;;;11.03;30.90
55687;BME280;41911;52.362;4.978;2023-04-28T00:30:29;101396.40;;;10.81;30.87
55687;BME280;41911;52.362;4.978;2023-04-28T00:31:00;101394.36;;;11.11;31.33
55687;BME280;41911;52.362;4.978;2023-04-28T00:31:31;101393.07;;;10.93;31.47
55687;BME280;41911;52.362;4.978;2023-04-28T00:32:02;101395.12;;;11.27;30.31
55687;BME280;41911;52.362;4.978;2023-04-28T00:32:33;101392.41;;;11.08;31.31
55687;BME280;41911;52.362;4.978;2023-04-28T00:33:04;101391.86;;;11.27;30.60
55687;BME280;41911;52.362;4.978;2023-04-28T00:33:35;101391.39;;;10.89;30.36
55687;BME280;41911;52.362;4.978;2023-04-28T00:34:06;101394.56;;;11.21;30.23
55687;BME280;41911;52.362;4.978;2023-04-28T00:34:37;101392.42;;;11.08;30.87
55687;BME280;41911;52.362;4.978;2023-04-28T00:35:08;101392.87;;;10.98;30.76
55687;BME280;41911;52.362;4.978;2023-04-28T00:35:40;101392.55;;;11.07;30.30
55687;BME280;41911;52.362;4.978;2023-04-28T00:36:11;101392.24;;;11.31;30.44
55687;BME280;41911;52.362;4.978;2023-04-28T00:36:41;101393.89;;;11.21;30.69
55687;BME280;41911;52.362;4.978;2023-04-28T00:37:12;101392.11;;;10.73;31.18
55687;BME280;41911;52.362;4.978;2023-04-28T00:37:43;101393.24;;;10.72;30.81
55687;BME280;41911;52.362;4.978;2023-04-28T00:38:14;101394.20;;;10.88;30.99
55687;BME280;41911;52.362;4.978;2023-04-28T00:38:45;101396.83;;;10.85;31.13
55687;BME280;41911;52.362;4.978;2023-04-28T00:39:16;101394.00;;;11.29;31.56
55687;BME280;41911;52.362;4.978;2023-04-28T00:39:47;101394.22;;;11.02;31.33
55687;BME280;41911;52.362;4.978;2023-04-28T00:40:18;101392.55;;;11.15;31.15
55687;BME280;41911;52.362;4.978;2023-04-28T00:40:50;101391.00;;;11.18;32.47
55687;BME280;41911;52.362;4.978;2023-04-28T00:41:21;101391.34;;;11.37;31.57
55687;BME280;41911;52.362;4.978;2023-04-28T00:41:52;101391.55;;;10.60;31.16
55687;BME280;41911;52.362;4.978;2023-04-28T00:42:23;101392.03;;;11.55;30.08
55687;BME280;41911;52.362;4.978;2023-04-28T00:42:54;101394.27;;;10.94;30.41
55687;BME280;41911;52.362;4.978;2023-04-28T00:43:25;101394.81;;;11.24;31.06
55687;BME280;41911;52.362;4.978;2023-04-28T00:43:56;101393.72;;;10.92;30.95
55687;BME280;41911;52.362;4.978;2023-04-28T00:44:27;101393.62;;;11.09;31.07
55687;BME280;41911;52.362;4.978;2023-04-28T00:44:58;101393.61;;;11.29;31.94
55687;BME280;41911;52.362;4.978;2023-04-28T00:45:29;101392.17;;;11.20;31.21
55687;BME280;41911;52.362;4.978;2023-04-28T00:45:59;101392.09;;;10.89;31.74
55687;BME280;41911;52.362;4.978;2023-04-28T00:46:32;101393.52;;;10.88;31.60
55687;BME280;41911;52.362;4.978;2023-04-28T00:47:03;101388.77;;;10.93;32.38
55687;BME280;41911;52.362;4.978;2023-04-28T00:47:36;101388.85;;;10.92;31.45
55687;BME280;41911;52.362;4.978;2023-04-28T00:48:07;101387.44;;;10.89;32.24
55687;BME280;41911;52.362;4.978;2023-04-28T00:48:38;101387.75;;;10.90;31.19
55687;BME280;41911;52.362;4.978;2023-04-28T00:49:09;101384.10;;;10.83;31.53
55687;BME280;41911;52.362;4.978;2023-04-28T00:49:40;101385.19;;;10.61;31.91
55687;BME280;41911;52.362;4.978;2023-04-28T00:50:11;101383.37;;;10.89;32.47
55687;BME280;41911;52.362;4.978;2023-04-28T00:50:43;101382.05;;;11.01;31.48
55687;BME280;41911;52.362;4.978;2023-04-28T00:51:14;101383.36;;;10.90;32.31
55687;BME280;41911;52.362;4.978;2023-04-28T00:51:45;101380.22;;;10.65;31.84
55687;BME280;41911;52.362;4.978;2023-04-28T00:52:16;101378.52;;;11.00;31.91
55687;BME280;41911;52.362;4.978;2023-04-28T00:52:47;101376.43;;;11.07;31.58
55687;BME280;41911;52.362;4.978;2023-04-28T00:53:19;101379.46;;;11.13;31.80
55687;BME280;41911;52.362;4.978;2023-04-28T00:53:50;101374.91;;;11.13;32.45
55687;BME280;41911;52.362;4.978;2023-04-28T00:54:21;101375.52;;;11.16;30.89
55687;BME280;41911;52.362;4.978;2023-04-28T00:54:53;101373.58;;;11.03;31.70
55687;BME280;41911;52.362;4.978;2023-04-28T00:55:25;101372.08;;;11.06;30.29
55687;BME280;41911;52.362;4.978;2023-04-28T00:55:57;101371.77;;;11.00;30.92
55687;BME280;41911;52.362;4.978;2023-04-28T00:56:28;101369.65;;;10.77;31.26
55687;BME280;41911;52.362;4.978;2023-04-28T00:57:00;101370.14;;;10.45;30.92
55687;BME280;41911;52.362;4.978;2023-04-28T00:57:31;101370.07;;;10.89;30.99
55687;BME280;41911;52.362;4.978;2023-04-28T00:58:02;101367.91;;;11.04;31.09
55687;BME280;41911;52.362;4.978;2023-04-28T00:58:33;101369.90;;;10.76;31.29
55687;BME280;41911;52.362;4.978;2023-04-28T00:59:04;101368.38;;;11.14;31.75
55687;BME280;41911;52.362;4.978;2023-04-28T00:59:35;101368.95;;;10.89;31.89
55687;BME280;41911;52.362;4.978;2023-04-28T01:00:07;101365.32;;;10.95;32.05
55687;BME280;41911;52.362;4.978;2023-04-28T01:00:38;101365.19;;;10.48;31.55
55687;BME280;41911;52.362;4.978;2023-04-28T01:01:09;101363.71;;;10.71;31.05
55687;BME280;41911;52.362;4.978;2023-04-28T01:01:40;101362.11;;;11.03;29.66
55687;BME280;41911;52.362;4.978;2023-04-28T01:02:12;101362.15;;;11.19;30.90
55687;BME280;41911;52.362;4.978;2023-04-28T01:02:42;101363.53;;;10.89;31.06
55687;BME280;41911;52.362;4.978;2023-04-28T01:03:13;101362.20;;;10.98;30.28
55687;BME280;41911;52.362;4.978;2023-04-28T01:03:44;101362.82;;;10.95;30.04
55687;BME280;41911;52.362;4.978;2023-04-28T01:04:16;101358.45;;;10.97;29.84
55687;BME280;41911;52.362;4.978;2023-04-28T01:04:50;101357.46;;;11.32;30.24
55687;BME280;41911;52.362;4.978;2023-04-28T01:05:22;101359.81;;;11.02;30.85
55687;BME280;41911;52.362;4.978;2023-04-28T01:05:53;101357.11;;;10.99;31.15
55687;BME280;41911;52.362;4.978;2023-04-28T01:06:26;101354.74;;;11.09;30.74
55687;BME280;41911;52.362;4.978;2023-04-28T01:06:59;101353.47;;;10.58;31.41
55687;BME280;41911;52.362;4.978;2023-04-28T01:07:30;101355.24;;;11.03;30.78
55687;BME280;41911;52.362;4.978;2023-04-28T01:08:01;101351.38;;;11.27;31.26
55687;BME280;41911;52.362;4.978;2023-04-28T01:08:34;101350.42;;;10.97;30.08
55687;BME280;41911;52.362;4.978;2023-04-28T01:09:05;101349.82;;;10.95;30.87
55687;BME280;41911;52.362;4.978;2023-04-28T01:09:36;101349.08;;;11.37;30.60
55687;BME280;41911;52.362;4.978;2023-04-28T01:10:08;101347.53;;;10.92;29.91
55687;BME280;41911;52.362;4.978;2023-04-28T01:10:42;101340.42;;;10.94;30.00
55687;BME280;41911;52.362;4.978;2023-04-28T01:11:13;101341.79;;;11.13;28.97
55687;BME280;41911;52.362;4.978;2023-04-28T01:11:44;101341.26;;;11.24;29.80
55687;BME280;41911;52.362;4.978;2023-04-28T01:12:15;101339.91;;;10.95;29.64
55687;BME280;41911;52.362;4.978;2023-04-28T01:12:46;101343.02;;;10.98;30.70
55687;BME280;41911;52.362;4.978;2023-04-28T01:13:17;101343.15;;;11.22;30.74
55687;BME280;41911;52.362;4.978;2023-04-28T01:13:48;101345.57;;;11.18;31.11
55687;BME280;41911;52.362;4.978;2023-04-28T01:14:19;101343.92;;;11.10;31.43
55687;BME280;41911;52.362;4.978;2023-04-28T01:14:50;101345.58;;;11.13;30.05
55687;BME280;41911;52.362;4.978;2023-04-28T01:15:21;101344.23;;;11.10;30.69
55687;BME280;41911;52.362;4.978;2023-04-28T01:15:53;101349.00;;;11.04;30.56
55687;BME280;41911;52.362;4.978;2023-04-28T01:16:25;101343.84;;;10.50;31.65
55687;BME280;41911;52.362;4.978;2023-04-28T01:16:56;101345.26;;;10.93;29.97
55687;BME280;41911;52.362;4.978;2023-04-28T01:17:27;101349.07;;;10.90;30.53
55687;BME280;41911;52.362;4.978;2023-04-28T01:17:58;101349.55;;;10.97;31.62
55687;BME280;41911;52.362;4.978;2023-04-28T01:18:30;101345.70;;;10.49;31.19
55687;BME280;41911;52.362;4.978;2023-04-28T01:19:01;101348.10;;;10.56;30.50
55687;BME280;41911;52.362;4.978;2023-04-28T01:19:32;101345.98;;;11.11;30.07
55687;BME280;41911;52.362;4.978;2023-04-28T01:20:03;101343.53;;;10.81;30.46
55687;BME280;41911;52.362;4.978;2023-04-28T01:20:35;101345.35;;;10.77;30.20
55687;BME280;41911;52.362;4.978;2023-04-28T01:21:06;101342.15;;;10.61;30.56
55687;BME280;41911;52.362;4.978;2023-04-28T01:21:36;101340.03;;;11.06;30.46
55687;BME280;41911;52.362;4.978;2023-04-28T01:22:07;101342.59;;;10.68;30.09
55687;BME280;41911;52.362;4.978;2023-04-28T01:22:38;101341.56;;;11.01;30.60
55687;BME280;41911;52.362;4.978;2023-04-28T01:23:11;101341.92;;;10.80;30.56
55687;BME280;41911;52.362;4.978;2023-04-28T01:23:44;101337.76;;;10.82;30.69
55687;BME280;41911;52.362;4.978;2023-04-28T01:24:15;101339.00;;;10.56;30.70
55687;BME280;41911;52.362;4.978;2023-04-28T01:24:47;101338.34;;;11.06;29.81
55687;BME280;41911;52.362;4.978;2023-04-28T01:25:18;101340.59;;;10.99;30.68
55687;BME280;41911;52.362;4.978;2023-04-28T01:25:49;101337.69;;;10.76;30.80
55687;BME280;41911;52.362;4.978;2023-04-28T01:26:20;101342.45;;;10.68;31.11
55687;BME280;41911;52.362;4.978;2023-04-28T01:26:51;101337.35;;;10.74;31.55
55687;BME280;41911;52.362;4.978;2023-04-28T01:27:22;101339.61;;;10.86;30.59
55687;BME280;41911;52.362;4.978;2023-04-28T01:27:53;101333.94;;;11.10;31.31
55687;BME280;41911;52.362;4.978;2023-04-28T01:28:24;101336.13;;;11.14;30.62
55687;BME280;41911;52.362;4.978;2023-04-28T01:28:55;101336.64;;;10.86;31.25
55687;BME280;41911;52.362;4.978;2023-04-28T01:29:26;101336.43;;;10.97;30.89
55687;BME280;41911;52.362;4.978;2023-04-28T01:29:57;101337.35;;;10.82;31.22
55687;BME280;41911;52.362;4.978;2023-04-28T01:30:28;101339.21;;;10.44;31.18
55687;BME280;41911;52.362;4.978;2023-04-28T01:30:59;101338.25;;;10.47;30.85
55687;BME280;41911;52.362;4.978;2023-04-28T01:31:30;101339.39;;;10.74;30.79
55687;BME280;41911;52.362;4.978;2023-04-28T01:32:01;101339.30;;;10.80;30.73
55687;BME280;41911;52.362;4.978;2023-04-28T01:32:32;101339.47;;;10.95;30.86
55687;BME280;41911;52.362;4.978;2023-04-28T01:33:03;101338.32;;;10.71;30.07
55687;BME280;41911;52.362;4.978;2023-04-28T01:33:34;101338.04;;;10.94;30.39
55687;BME280;41911;52.362;4.978;2023-04-28T01:34:05;101338.02;;;10.83;31.08
55687;BME280;41911;52.362;4.978;2023-04-28T01:34:36;101338.55;;;10.67;31.45
55687;BME280;41911;52.362;4.978;2023-04-28T01:35:07;101335.38;;;10.81;31.56
55687;BME280;41911;52.362;4.978;2023-04-28T01:35:38;101334.34;;;10.90;30.45
55687;BME280;41911;52.362;4.978;2023-04-28T01:36:09;101336.05;;;11.10;31.07
55687;BME280;41911;52.362;4.978;2023-04-28T01:36:40;101337.59;;;11.09;31.60
55687;BME280;41911;52.362;4.978;2023-04-28T01:37:11;101333.33;;;10.97;31.30
55687;BME280;41911;52.362;4.978;2023-04-28T01:37:42;101333.78;;;10.73;30.60
55687;BME280;41911;52.362;4.978;2023-04-28T01:38:13;101335.67;;;11.08;30.80
55687;BME280;41911;52.362;4.978;2023-04-28T01:38:44;101330.96;;;10.68;31.49
55687;BME280;41911;52.362;4.978;2023-04-28T01:39:15;101332.86;;;10.67;30.90
55687;BME280;41911;52.362;4.978;2023-04-28T01:39:45;101334.16;;;11.04;30.74
55687;BME280;41911;52.362;4.978;2023-04-28T01:40:16;101335.34;;;10.97;31.24
55687;BME280;41911;52.362;4.978;2023-04-28T01:40:47;101335.60;;;10.73;31.56
55687;BME280;41911;52.362;4.978;2023-04-28T01:41:18;101336.67;;;11.04;30.76
55687;BME280;41911;52.362;4.978;2023-04-28T01:41:49;101334.39;;;10.75;30.96
55687;BME280;41911;52.362;4.978;2023-04-28T01:42:20;101331.61;;;10.75;31.08
55687;BME280;41911;52.362;4.978;2023-04-28T01:42:51;101331.16;;;10.78;31.01
55687;BME280;41911;52.362;4.978;2023-04-28T01:43:22;101334.33;;;10.82;30.58
55687;BME280;41911;52.362;4.978;2023-04-28T01:43:53;101328.84;;;10.65;31.31
55687;BME280;41911;52.362;4.978;2023-04-28T01:44:24;101332.09;;;10.84;30.21
55687;BME280;41911;52.362;4.978;2023-04-28T01:44:55;101326.73;;;10.74;30.73
55687;BME280;41911;52.362;4.978;2023-04-28T01:45:26;101327.27;;;10.89;30.97
55687;BME280;41911;52.362;4.978;2023-04-28T01:45:57;101325.65;;;10.62;30.46
55687;BME280;41911;52.362;4.978;2023-04-28T01:46:28;101322.77;;;11.02;30.64
55687;BME280;41911;52.362;4.978;2023-04-28T01:46:59;101321.13;;;10.50;30.73
55687;BME280;41911;52.362;4.978;2023-04-28T01:47:30;101321.83;;;10.37;31.64
55687;BME280;41911;52.362;4.978;2023-04-28T01:48:01;101317.92;;;10.41;31.97
55687;BME280;41911;52.362;4.978;2023-04-28T01:48:32;101317.29;;;10.42;31.81
55687;BME280;41911;52.362;4.978;2023-04-28T01:49:02;101315.66;;;10.86;29.89
55687;BME280;41911;52.362;4.978;2023-04-28T01:49:33;101318.17;;;10.81;30.55
55687;BME280;41911;52.362;4.978;2023-04-28T01:50:05;101314.48;;;10.62;30.90
55687;BME280;41911;52.362;4.978;2023-04-28T01:50:36;101314.43;;;10.77;30.90
55687;BME280;41911;52.362;4.978;2023-04-28T01:51:07;101315.06;;;10.78;30.40
55687;BME280;41911;52.362;4.978;2023-04-28T01:51:38;101315.51;;;10.44;31.05
55687;BME280;41911;52.362;4.978;2023-04-28T01:52:09;101313.27;;;10.57;30.92
55687;BME280;41911;52.362;4.978;2023-04-28T01:52:40;101311.81;;;10.60;30.53
55687;BME280;41911;52.362;4.978;2023-04-28T01:53:11;101314.86;;;10.71;30.69
55687;BME280;41911;52.362;4.978;2023-04-28T01:53:42;101309.24;;;10.65;30.13
55687;BME280;41911;52.362;4.978;2023-04-28T01:54:13;101308.37;;;10.72;30.58
55687;BME280;41911;52.362;4.978;2023-04-28T01:54:44;101309.38;;;11.30;30.82
55687;BME280;41911;52.362;4.978;2023-04-28T01:55:15;101309.08;;;10.92;30.07
55687;BME280;41911;52.362;4.978;2023-04-28T01:55:46;101310.26;;;11.09;29.67
55687;BME280;41911;52.362;4.978;2023-04-28T01:56:17;101310.80;;;10.53;31.07
55687;BME280;41911;52.362;4.978;2023-04-28T01:56:48;101308.35;;;10.80;31.30
55687;BME280;41911;52.362;4.978;2023-04-28T01:57:19;101306.52;;;10.49;31.18
55687;BME280;41911;52.362;4.978;2023-04-28T01:57:50;101308.62;;;10.66;30.85
55687;BME280;41911;52.362;4.978;2023-04-28T01:58:20;101310.56;;;10.73;30.96
55687;BME280;41911;52.362;4.978;2023-04-28T01:58:51;101308.65;;;10.72;31.71
55687;BME280;41911;52.362;4.978;2023-04-28T01:59:22;101308.44;;;10.75;31.65
55687;BME280;41911;52.362;4.978;2023-04-28T01:59:53;101312.18;;;10.55;31.15
55687;BME280;41911;52.362;4.978;2023-04-28T02:00:24;101308.96;;;10.43;31.10
55687;BME280;41911;52.362;4.978;2023-04-28T02:00:55;101312.81;;;10.72;31.71
55687;BME280;41911;52.362;4.978;2023-04-28T02:01:26;101310.86;;;10.78;31.15
55687;BME280;41911;52.362;4.978;2023-04-28T02:01:57;101312.37;;;11.02;31.02
55687;BME280;41911;52.362;4.978;2023-04-28T02:02:28;101312.54;;;10.44;31.02
55687;BME280;41911;52.362;4.978;2023-04-28T02:02:59;101315.76;;;10.85;31.40
55687;BME280;41911;52.362;4.978;2023-04-28T02:03:30;101311.52;;;10.92;31.20
55687;BME280;41911;52.362;4.978;2023-04-28T02:04:01;101313.57;;;10.89;31.25
55687;BME280;41911;52.362;4.978;2023-04-28T02:04:32;101313.34;;;11.00;31.27
55687;BME280;41911;52.362;4.978;2023-04-28T02:05:03;101313.72;;;11.07;30.93
55687;BME280;41911;52.362;4.978;2023-04-28T02:05:34;101314.11;;;10.89;31.59
55687;BME280;41911;52.362;4.978;2023-04-28T02:06:05;101306.76;;;10.31;31.54
55687;BME280;41911;52.362;4.978;2023-04-28T02:06:36;101311.69;;;10.31;31.21
55687;BME280;41911;52.362;4.978;2023-04-28T02:07:07;101311.85;;;10.65;31.99
55687;BME280;41911;52.362;4.978;2023-04-28T02:07:38;101312.62;;;10.29;31.42
55687;BME280;41911;52.362;4.978;2023-04-28T02:08:08;101310.47;;;10.75;31.50
55687;BME280;41911;52.362;4.978;2023-04-28T02:08:39;101305.26;;;10.68;31.88
55687;BME280;41911;52.362;4.978;2023-04-28T02:09:10;101308.87;;;10.32;31.90
55687;BME280;41911;52.362;4.978;2023-04-28T02:09:41;101308.70;;;10.64;32.31
55687;BME280;41911;52.362;4.978;2023-04-28T02:10:12;101307.04;;;10.80;32.04
55687;BME280;41911;52.362;4.978;2023-04-28T02:10:43;101308.27;;;10.89;32.10
55687;BME280;41911;52.362;4.978;2023-04-28T02:11:14;101309.43;;;10.90;32.07
55687;BME280;41911;52.362;4.978;2023-04-28T02:11:45;101304.98;;;10.58;31.84
55687;BME280;41911;52.362;4.978;2023-04-28T02:12:16;101305.22;;;10.88;31.92
55687;BME280;41911;52.362;4.978;2023-04-28T02:12:47;101305.86;;;10.98;31.96
55687;BME280;41911;52.362;4.978;2023-04-28T02:13:17;101305.26;;;10.73;31.77
55687;BME280;41911;52.362;4.978;2023-04-28T02:13:48;101302.84;;;10.79;31.10
55687;BME280;41911;52.362;4.978;2023-04-28T02:14:19;101301.93;;;10.57;31.70
55687;BME280;41911;52.362;4.978;2023-04-28T02:14:50;101301.81;;;10.85;31.54
55687;BME280;41911;52.362;4.978;2023-04-28T02:15:21;101301.47;;;10.78;31.46
55687;BME280;41911;52.362;4.978;2023-04-28T02:15:52;101298.95;;;10.90;31.69
55687;BME280;41911;52.362;4.978;2023-04-28T02:16:23;101300.51;;;10.96;31.93
55687;BME280;41911;52.362;4.978;2023-04-28T02:16:54;101299.57;;;11.09;31.88
55687;BME280;41911;52.362;4.978;2023-04-28T02:17:25;101298.19;;;10.82;31.47
55687;BME280;41911;52.362;4.978;2023-04-28T02:17:56;101296.90;;;10.82;31.96
55687;BME280;41911;52.362;4.978;2023-04-28T02:18:27;101297.41;;;10.66;31.60
55687;BME280;41911;52.362;4.978;2023-04-28T02:18:58;101299.26;;;10.68;31.55
55687;BME280;41911;52.362;4.978;2023-04-28T02:19:29;101297.50;;;10.44;31.63
55687;BME280;41911;52.362;4.978;2023-04-28T02:20:00;101295.90;;;10.74;30.45
55687;BME280;41911;52.362;4.978;2023-04-28T02:20:30;101290.02;;;10.74;30.72
55687;BME280;41911;52.362;4.978;2023-04-28T02:21:08;101293.17;;;10.37;31.13
55687;BME280;41911;52.362;4.978;2023-04-28T02:21:39;101292.70;;;10.30;31.33
55687;BME280;41911;52.362;4.978;2023-04-28T02:22:11;101294.99;;;10.53;31.93
55687;BME280;41911;52.362;4.978;2023-04-28T02:22:42;101298.96;;;10.64;31.51
55687;BME280;41911;52.362;4.978;2023-04-28T02:23:12;101293.47;;;10.68;31.96
55687;BME280;41911;52.362;4.978;2023-04-28T02:23:43;101294.68;;;10.40;31.60
55687;BME280;41911;52.362;4.978;2023-04-28T02:24:14;101294.25;;;10.84;31.07
55687;BME280;41911;52.362;4.978;2023-04-28T02:24:45;101293.54;;;10.74;30.89
55687;BME280;41911;52.362;4.978;2023-04-28T02:25:16;101292.33;;;10.48;31.58
55687;BME280;41911;52.362;4.978;2023-04-28T02:25:47;101292.06;;;10.63;32.00
55687;BME280;41911;52.362;4.978;2023-04-28T02:26:18;101288.91;;;10.81;31.88
55687;BME280;41911;52.362;4.978;2023-04-28T02:26:49;101289.53;;;10.56;32.13
55687;BME280;41911;52.362;4.978;2023-04-28T02:27:20;101289.22;;;10.38;32.17
55687;BME280;41911;52.362;4.978;2023-04-28T02:27:51;101287.79;;;10.47;32.31
55687;BME280;41911;52.362;4.978;2023-04-28T02:28:22;101286.87;;;10.57;32.51
55687;BME280;41911;52.362;4.978;2023-04-28T02:28:53;101286.68;;;10.65;32.84
55687;BME280;41911;52.362;4.978;2023-04-28T02:29:25;101284.88;;;10.42;32.63
55687;BME280;41911;52.362;4.978;2023-04-28T02:29:56;101282.90;;;10.69;32.12
55687;BME280;41911;52.362;4.978;2023-04-28T02:30:27;101284.67;;;10.44;32.46
55687;BME280;41911;52.362;4.978;2023-04-28T02:31:06;101279.60;;;10.78;32.19
55687;BME280;41911;52.362;4.978;2023-04-28T02:31:37;101279.46;;;10.80;32.43
55687;BME280;41911;52.362;4.978;2023-04-28T02:32:08;101277.84;;;10.80;32.38
55687;BME280;41911;52.362;4.978;2023-04-28T02:32:39;101275.25;;;10.92;32.19
55687;BME280;41911;52.362;4.978;2023-04-28T02:33:10;101275.86;;;11.00;30.97
55687;BME280;41911;52.362;4.978;2023-04-28T02:33:41;101272.51;;;10.94;31.74
55687;BME280;41911;52.362;4.978;2023-04-28T02:34:13;101272.76;;;10.60;32.02
55687;BME280;41911;52.362;4.978;2023-04-28T02:34:44;101270.45;;;10.70;32.91
55687;BME280;41911;52.362;4.978;2023-04-28T02:35:15;101268.64;;;10.58;32.69
55687;BME280;41911;52.362;4.978;2023-04-28T02:35:45;101267.54;;;10.64;32.57
55687;BME280;41911;52.362;4.978;2023-04-28T02:36:16;101266.19;;;10.73;32.26
55687;BME280;41911;52.362;4.978;2023-04-28T02:36:47;101265.42;;;10.67;32.73
55687;BME280;41911;52.362;4.978;2023-04-28T02:37:18;101264.25;;;10.48;32.97
55687;BME280;41911;52.362;4.978;2023-04-28T02:37:49;101264.14;;;10.65;31.71
55687;BME280;41911;52.362;4.978;2023-04-28T02:38:20;101264.94;;;10.63;32.14
55687;BME280;41911;52.362;4.978;2023-04-28T02:38:51;101263.81;;;10.54;33.06
55687;BME280;41911;52.362;4.978;2023-04-28T02:39:22;101262.70;;;10.39;33.42
55687;BME280;41911;52.362;4.978;2023-04-28T02:39:53;101266.31;;;10.40;33.43
55687;BME280;41911;52.362;4.978;2023-04-28T02:40:24;101265.01;;;10.36;33.69
55687;BME280;41911;52.362;4.978;2023-04-28T02:40:58;101262.96;;;10.29;33.19
55687;BME280;41911;52.362;4.978;2023-04-28T02:41:29;101262.56;;;10.14;32.96
55687;BME280;41911;52.362;4.978;2023-04-28T02:42:00;101262.01;;;10.33;33.67
55687;BME280;41911;52.362;4.978;2023-04-28T02:42:31;101260.28;;;10.36;33.53
55687;BME280;41911;52.362;4.978;2023-04-28T02:43:02;101260.55;;;10.42;34.48